Time;durP1;ratioP1;P1;durP2;ratioP2;P2;SDS_P1;SDS_P2;PMS_P1;PMS_P2;Temp;Humidity;BMP_temperature;BMP_pressure;BME280_temperature;BME280_humidity;BME280_pressure;Samples;Min_cycle;Max_cycle;Signal;HPM_P1;HPM_P2
2022/12/16 00:00:29;;;;;;;95.13;44.28;;;-1.00;99.90;;;;;;5024567;28;20390;-67
2022/12/16 00:02:59;;;;;;;83.60;40.33;;;-1.00;99.90;;;;;;5023877;28;20474;-68
2022/12/16 00:05:24;;;;;;;90.57;41.55;;;-1.00;99.90;;;;;;5025453;28;20026;-67
2022/12/16 00:07:50;;;;;;;92.30;43.03;;;-1.00;99.90;;;;;;5025179;28;20028;-68
2022/12/16 00:10:16;;;;;;;87.50;41.95;;;-1.00;99.90;;;;;;5024887;28;20547;-67
2022/12/16 00:12:41;;;;;;;97.68;46.38;;;-1.10;99.90;;;;;;5027223;28;20029;-68
2022/12/16 00:15:07;;;;;;;88.20;43.17;;;-1.10;99.90;;;;;;5024119;28;20034;-67
2022/12/16 00:17:33;;;;;;;95.70;47.60;;;-1.10;99.90;;;;;;5026836;28;20079;-68
2022/12/16 00:19:58;;;;;;;95.72;43.00;;;-1.10;99.90;;;;;;5022883;28;20033;-66
2022/12/16 00:22:24;;;;;;;93.10;43.35;;;-1.10;99.90;;;;;;5025434;28;20057;-67
2022/12/16 00:24:50;;;;;;;87.70;41.50;;;-1.10;99.90;;;;;;5029220;28;20026;-67
2022/12/16 00:27:15;;;;;;;83.22;40.47;;;-1.00;99.90;;;;;;5031683;28;20022;-67
2022/12/16 00:29:41;;;;;;;82.00;39.85;;;-0.90;99.90;;;;;;5024134;28;20069;-68
2022/12/16 00:32:06;;;;;;;86.43;41.53;;;-0.80;99.90;;;;;;5031227;28;20029;-68
2022/12/16 00:34:32;;;;;;;83.70;38.72;;;-0.70;99.90;;;;;;5028688;28;20061;-67
2022/12/16 00:36:58;;;;;;;85.30;39.97;;;-0.60;99.90;;;;;;5030193;28;20052;-67
2022/12/16 00:39:24;;;;;;;79.72;41.13;;;-0.60;99.90;;;;;;5029226;28;20064;-67
2022/12/16 00:41:50;;;;;;;82.93;41.42;;;-0.70;99.90;;;;;;5028914;28;20045;-68
2022/12/16 00:44:15;;;;;;;81.95;38.25;;;-0.70;99.90;;;;;;5023833;28;20040;-67
2022/12/16 00:46:41;;;;;;;84.90;40.17;;;-0.70;99.90;;;;;;5030537;28;20018;-67
2022/12/16 00:49:07;;;;;;;83.03;40.08;;;-0.60;99.90;;;;;;5025895;28;20032;-66
2022/12/16 00:51:32;;;;;;;87.30;40.53;;;-0.50;99.90;;;;;;5028516;28;20091;-68
2022/12/16 00:53:58;;;;;;;81.25;41.00;;;-0.50;99.90;;;;;;5024991;28;20030;-66
2022/12/16 00:56:24;;;;;;;78.65;40.65;;;-0.70;99.90;;;;;;5026520;28;20525;-67
2022/12/16 00:58:49;;;;;;;83.20;38.55;;;-0.70;99.90;;;;;;5026322;28;20036;-67
2022/12/16 01:01:15;;;;;;;81.47;38.80;;;-0.60;99.90;;;;;;5028555;28;20083;-68
2022/12/16 01:03:41;;;;;;;82.07;38.90;;;-0.50;99.90;;;;;;5028076;28;20381;-65
2022/12/16 01:06:13;;;;;;;76.97;37.33;;;-0.50;99.90;;;;;;5023474;28;20025;-67
2022/12/16 01:08:39;;;;;;;79.40;38.58;;;-0.40;99.90;;;;;;5028070;28;20026;-67
2022/12/16 01:11:05;;;;;;;76.60;37.60;;;-0.30;99.90;;;;;;5028033;28;20086;-68
2022/12/16 01:13:30;;;;;;;74.88;38.20;;;-0.30;99.90;;;;;;5023761;28;20539;-66
2022/12/16 01:16:00;;;;;;;77.90;37.53;;;-0.20;99.90;;;;;;5025043;28;20041;-68
2022/12/16 01:18:25;;;;;;;80.05;36.63;;;-0.20;99.90;;;;;;5022320;28;20025;-68
2022/12/16 01:20:51;;;;;;;75.50;35.40;;;-0.30;99.90;;;;;;5028418;28;20435;-68
2022/12/16 01:23:17;;;;;;;81.50;36.40;;;-0.30;99.90;;;;;;5023619;28;20037;-68
2022/12/16 01:25:42;;;;;;;73.90;35.22;;;-0.20;99.90;;;;;;5027271;28;20155;-67
2022/12/16 01:28:08;;;;;;;74.55;36.05;;;-0.30;99.90;;;;;;5023381;28;20029;-68
2022/12/16 01:30:34;;;;;;;70.72;36.58;;;-0.10;99.90;;;;;;5026040;28;20474;-67
2022/12/16 01:32:59;;;;;;;79.32;38.15;;;-0.20;99.90;;;;;;5027467;28;20038;-68
2022/12/16 01:35:25;;;;;;;89.97;41.95;;;-0.20;99.90;;;;;;5028898;28;20036;-67
2022/12/16 01:37:51;;;;;;;79.07;39.45;;;-0.20;99.90;;;;;;5029762;28;20390;-67
2022/12/16 01:40:20;;;;;;;83.90;38.90;;;-0.10;99.90;;;;;;5029520;28;20033;-67
2022/12/16 01:42:45;;;;;;;83.32;38.13;;;-0.10;99.90;;;;;;5030455;28;20040;-68
2022/12/16 01:45:32;;;;;;;91.22;43.42;;;0.00;99.90;;;;;;5029635;28;20477;-68
2022/12/16 01:48:05;;;;;;;88.70;42.30;;;0.00;99.90;;;;;;5027887;28;20025;-66
2022/12/16 01:50:31;;;;;;;85.18;41.05;;;0.00;99.90;;;;;;5027339;28;20036;-68
2022/12/16 01:53:02;;;;;;;86.32;40.38;;;0.00;99.90;;;;;;5030312;28;20385;-67
2022/12/16 01:55:38;;;;;;;92.35;42.83;;;0.00;99.90;;;;;;5029922;28;20029;-67
2022/12/16 01:58:08;;;;;;;88.13;40.97;;;0.00;99.90;;;;;;5020994;28;20079;-68
2022/12/16 02:00:35;;;;;;;87.72;42.00;;;0.10;99.90;;;;;;5027211;28;20506;-67
2022/12/16 02:03:02;;;;;;;85.22;41.13;;;0.10;99.90;;;;;;5029325;28;20032;-68
2022/12/16 02:05:29;;;;;;;93.47;42.83;;;0.10;99.90;;;;;;5027604;28;20029;-66
2022/12/16 02:08:15;;;;;;;95.40;45.47;;;0.20;99.90;;;;;;5023066;28;20030;-66
2022/12/16 02:10:41;;;;;;;86.28;40.28;;;0.20;99.90;;;;;;5027435;28;20124;-67
2022/12/16 02:13:32;;;;;;;87.07;41.20;;;0.30;99.90;;;;;;5028861;28;20100;-67
2022/12/16 02:16:36;;;;;;;84.38;41.90;;;0.40;99.90;;;;;;5029029;28;20470;-66
2022/12/16 02:19:24;;;;;;;80.57;37.28;;;0.40;99.90;;;;;;4986932;28;20174;-67
2022/12/16 02:21:59;;;;;;;77.68;39.00;;;0.40;99.90;;;;;;5006713;28;20111;-66
2022/12/16 02:24:48;;;;;;;75.75;40.08;;;0.50;99.90;;;;;;5026823;28;20231;-67
2022/12/16 02:27:16;;;;;;;86.10;40.65;;;0.50;99.90;;;;;;5030048;28;20115;-67
2022/12/16 02:29:42;;;;;;;80.88;38.17;;;0.40;99.90;;;;;;5031966;28;20042;-66
2022/12/16 02:32:33;;;;;;;106.13;41.75;;;0.40;99.90;;;;;;5020935;28;20030;-66
2022/12/16 02:35:13;;;;;;;83.90;41.53;;;0.40;99.90;;;;;;5027332;28;20037;-68
2022/12/16 02:38:07;;;;;;;84.53;41.92;;;0.50;99.90;;;;;;5029899;28;20025;-67
2022/12/16 02:40:44;;;;;;;83.22;41.45;;;0.50;99.90;;;;;;5045766;28;20524;-66
2022/12/16 02:43:35;;;;;;;84.80;41.00;;;0.60;99.90;;;;;;5027408;28;20056;-68
2022/12/16 02:46:02;;;;;;;82.03;39.97;;;0.60;99.90;;;;;;5031944;28;20164;-68
2022/12/16 02:48:27;;;;;;;84.53;41.17;;;0.60;99.90;;;;;;5031239;28;20029;-68
2022/12/16 02:50:53;;;;;;;88.10;43.08;;;0.60;99.90;;;;;;5028287;28;20033;-66
2022/12/16 02:53:20;;;;;;;78.63;39.80;;;0.70;99.90;;;;;;5026741;28;20025;-67
2022/12/16 02:55:59;;;;;;;75.85;37.35;;;0.70;99.90;;;;;;5029448;28;20045;-67
2022/12/16 02:58:40;;;;;;;84.70;41.58;;;0.60;99.90;;;;;;5023204;28;20029;-68
2022/12/16 03:01:34;;;;;;;91.85;45.00;;;0.60;99.90;;;;;;5021496;28;20041;-67
2022/12/16 03:04:14;;;;;;;93.85;44.22;;;0.40;99.90;;;;;;5031138;28;20032;-67
2022/12/16 03:06:43;;;;;;;90.45;44.50;;;0.30;99.90;;;;;;5029148;28;20048;-68
2022/12/16 03:09:12;;;;;;;83.32;42.15;;;0.40;99.90;;;;;;5026657;28;20049;-66
2022/12/16 03:11:41;;;;;;;83.28;42.10;;;0.50;99.90;;;;;;5020971;28;20026;-68
2022/12/16 03:14:09;;;;;;;88.05;43.25;;;0.60;99.90;;;;;;5034374;28;20026;-67
2022/12/16 03:16:35;;;;;;;97.53;46.63;;;0.50;99.90;;;;;;5029320;28;20025;-67
2022/12/16 03:19:05;;;;;;;89.15;45.20;;;0.60;99.90;;;;;;5025328;28;20036;-67
2022/12/16 03:21:37;;;;;;;104.47;52.10;;;0.60;99.90;;;;;;5032477;28;20013;-67
2022/12/16 03:24:06;;;;;;;90.93;46.88;;;0.70;99.90;;;;;;5031579;28;20025;-68
2022/12/16 03:26:38;;;;;;;89.40;45.30;;;0.80;99.90;;;;;;5032920;28;20037;-67
2022/12/16 03:29:21;;;;;;;87.07;43.95;;;0.80;99.90;;;;;;5031997;28;20069;-67
2022/12/16 03:31:54;;;;;;;103.55;51.88;;;0.80;99.90;;;;;;5023455;28;20441;-68
2022/12/16 03:34:26;;;;;;;93.43;47.85;;;0.80;99.90;;;;;;5031113;28;20060;-68
2022/12/16 03:36:59;;;;;;;90.78;47.20;;;0.80;99.90;;;;;;5025927;28;20080;-67
2022/12/16 03:39:26;;;;;;;83.35;43.80;;;0.80;99.90;;;;;;5027224;28;20014;-67
2022/12/16 03:41:53;;;;;;;98.88;47.83;;;0.80;99.90;;;;;;5024322;28;20406;-66
2022/12/16 03:44:21;;;;;;;92.95;46.88;;;0.80;99.90;;;;;;5034314;28;20508;-67
2022/12/16 03:46:47;;;;;;;86.82;44.00;;;0.80;99.90;;;;;;5029251;28;20026;-68
2022/12/16 03:49:13;;;;;;;103.07;47.13;;;0.90;99.90;;;;;;5023383;28;20021;-67
2022/12/16 03:51:38;;;;;;;92.93;46.28;;;0.80;99.90;;;;;;5030815;28;20033;-67
2022/12/16 03:54:04;;;;;;;90.88;45.97;;;0.80;99.90;;;;;;5021892;28;20026;-66
2022/12/16 03:56:30;;;;;;;92.95;45.95;;;0.90;99.90;;;;;;5035009;28;20021;-67
2022/12/16 03:58:55;;;;;;;94.18;46.03;;;0.90;99.90;;;;;;5025196;28;20018;-66
2022/12/16 04:01:22;;;;;;;93.15;45.95;;;0.90;99.90;;;;;;5028549;28;20026;-67
2022/12/16 04:03:47;;;;;;;93.30;44.75;;;0.90;99.90;;;;;;5028667;28;20156;-67
2022/12/16 04:06:17;;;;;;;90.25;46.10;;;0.80;99.90;;;;;;5032312;28;20101;-67
2022/12/16 04:08:46;;;;;;;96.38;47.08;;;0.80;99.90;;;;;;5036699;28;20083;-66
2022/12/16 04:25:27;;;;;;;99.30;49.50;;;0.80;99.90;;;;;;5030958;28;20069;-67
2022/12/16 04:27:52;;;;;;;94.47;47.53;;;0.70;99.90;;;;;;5026078;28;20105;-68
2022/12/16 04:30:19;;;;;;;99.72;48.35;;;0.70;99.90;;;;;;5027415;28;20120;-66
